Time;durP1;ratioP1;P1;durP2;ratioP2;P2;SDS_P1;SDS_P2;PMS_P1;PMS_P2;Temp;Humidity;BMP_temperature;BMP_pressure;BME280_temperature;BME280_humidity;BME280_pressure;Samples;Min_cycle;Max_cycle;Signal;HPM_P1;HPM_P2
2023/03/20 00:00:32;;;;;;;2.30;1.80;;;;;;;19.20;49.81;97627.56;4933337;28;20203;-89
2023/03/20 00:02:59;;;;;;;1.83;1.73;;;;;;;17.66;50.04;97359.88;4972627;28;20366;-90
2023/03/20 00:05:27;;;;;;;1.70;1.60;;;;;;;18.12;49.90;97445.72;4933290;28;20215;-89
2023/03/20 00:07:54;;;;;;;2.10;1.90;;;;;;;18.17;49.77;97449.34;4972448;28;20218;-90
2023/03/20 00:10:20;;;;;;;1.80;1.70;;;;;;;18.85;49.92;97568.34;4962394;28;20706;-90
2023/03/20 00:12:48;;;;;;;1.70;1.60;;;;;;;18.57;49.78;97519.69;4971968;28;20682;-89
2023/03/20 00:15:28;;;;;;;1.70;1.60;;;;;;;18.78;49.93;97562.19;4955750;28;20249;-89
2023/03/20 00:17:55;;;;;;;1.97;1.77;;;;;;;18.84;49.78;97580.25;4972851;28;20283;-90
2023/03/20 00:20:22;;;;;;;1.67;1.57;;;;;;;18.58;49.68;97531.59;4972064;28;20282;-90
2023/03/20 00:22:48;;;;;;;2.37;1.93;;;;;;;18.41;49.88;97504.63;4956406;28;20266;-90
2023/03/20 00:25:17;;;;;;;1.90;1.80;;;;;;;17.91;49.90;97410.91;4956147;28;20416;-89
2023/03/20 00:27:43;;;;;;;2.07;1.90;;;;;;;18.83;49.78;97577.63;4956230;28;20286;-89
2023/03/20 00:30:15;;;;;;;1.73;1.63;;;;;;;19.19;49.84;97628.34;4956125;28;20579;-89
2023/03/20 00:32:41;;;;;;;1.70;1.60;;;;;;;18.85;50.29;97581.97;4961931;28;20203;-90
2023/03/20 00:35:26;;;;;;;1.87;1.70;;;;;;;18.58;49.92;97519.75;4940365;28;20254;-90
2023/03/20 00:37:53;;;;;;;1.80;1.70;;;;;;;18.05;49.92;97431.03;4952253;28;20213;-90
2023/03/20 00:40:20;;;;;;;1.70;1.60;;;;;;;18.97;49.68;97597.75;4971616;28;20231;-89
2023/03/20 00:42:50;;;;;;;1.90;1.80;;;;;;;18.60;49.90;97527.47;4936788;28;20291;-89
2023/03/20 00:45:17;;;;;;;1.50;1.40;;;;;;;17.99;49.81;97456.22;4955721;28;20223;-90
2023/03/20 00:47:44;;;;;;;1.77;1.67;;;;;;;17.91;49.71;97419.41;4955971;28;20283;-89
2023/03/20 00:50:29;;;;;;;1.70;1.60;;;;;;;18.42;50.00;97507.22;4943384;28;20204;-90
2023/03/20 00:52:56;;;;;;;1.63;1.53;;;;;;;18.50;49.92;97512.63;4936190;28;20208;-90
2023/03/20 00:55:24;;;;;;;1.80;1.70;;;;;;;18.32;49.88;97483.84;4955520;28;20236;-90
2023/03/20 00:57:59;;;;;;;1.80;1.70;;;;;;;19.21;50.00;97634.38;4936302;29;20208;-90
2023/03/20 01:00:39;;;;;;;1.60;1.50;;;;;;;19.21;49.88;97636.06;4955847;28;20452;-90
2023/03/20 01:03:17;;;;;;;1.77;1.67;;;;;;;18.64;49.87;97534.41;4966600;28;20283;-89
2023/03/20 01:05:44;;;;;;;1.70;1.60;;;;;;;17.78;49.73;97386.69;4956390;28;20234;-89
2023/03/20 01:08:19;;;;;;;1.80;1.70;;;;;;;18.34;49.94;97490.72;4955472;28;20209;-90
2023/03/20 01:10:46;;;;;;;1.60;1.50;;;;;;;18.90;49.85;97579.63;4951935;29;20210;-89
2023/03/20 01:13:24;;;;;;;1.80;1.70;;;;;;;19.01;49.69;97603.84;4953023;28;20684;-90
2023/03/20 01:15:51;;;;;;;2.20;2.00;;;;;;;18.64;49.48;97525.09;4955034;28;20689;-90
2023/03/20 01:18:19;;;;;;;2.00;1.80;;;;;;;18.56;49.83;97513.72;4954916;28;20214;-90
2023/03/20 01:20:46;;;;;;;1.60;1.50;;;;;;;18.87;49.70;97574.41;4970273;28;20214;-90
2023/03/20 01:23:13;;;;;;;1.60;1.50;;;;;;;18.61;49.81;97516.47;4955388;28;20203;-90
2023/03/20 01:25:39;;;;;;;2.17;1.97;;;;;;;19.20;49.82;97636.88;4954645;28;20219;-90
2023/03/20 01:28:15;;;;;;;1.70;1.60;;;;;;;18.39;49.72;97496.03;4939275;28;20211;-90
2023/03/20 01:30:42;;;;;;;1.80;1.70;;;;;;;18.58;49.66;97526.50;4936432;28;20210;-90
2023/03/20 01:33:16;;;;;;;1.67;1.57;;;;;;;18.83;49.78;97577.63;4968145;28;20235;-89
2023/03/20 01:35:43;;;;;;;1.90;1.80;;;;;;;18.73;49.63;97560.22;4936184;28;20219;-89
2023/03/20 01:38:18;;;;;;;1.70;1.60;;;;;;;18.46;49.77;97511.63;4955058;28;20208;-89
2023/03/20 01:40:52;;;;;;;1.60;1.50;;;;;;;18.71;49.67;97567.81;4939523;28;20282;-90
2023/03/20 01:43:19;;;;;;;1.60;1.50;;;;;;;18.58;49.66;97532.50;4939107;28;20258;-90
2023/03/20 01:46:23;;;;;;;1.97;1.77;;;;;;;19.18;49.60;97630.84;4954898;28;20212;-89
2023/03/20 01:48:50;;;;;;;1.70;1.60;;;;;;;19.19;49.66;97630.06;4967241;28;20195;-89
2023/03/20 01:51:21;;;;;;;1.80;1.70;;;;;;;18.80;49.89;97567.31;4970413;28;20206;-87
2023/03/20 01:53:53;;;;;;;1.60;1.50;;;;;;;19.19;50.21;97632.59;4955745;28;20286;-89
2023/03/20 01:56:20;;;;;;;1.80;1.70;;;;;;;18.55;49.83;97511.13;4938123;28;20307;-90
2023/03/20 01:58:53;;;;;;;2.50;1.80;;;;;;;19.22;49.66;97655.66;4939163;28;20209;-90
2023/03/20 02:01:19;;;;;;;1.53;1.43;;;;;;;18.38;49.83;97497.72;4951344;28;20204;-89
2023/03/20 02:03:47;;;;;;;2.00;1.70;;;;;;;18.25;49.89;97462.38;4970390;28;20211;-90
2023/03/20 02:06:14;;;;;;;2.30;1.77;;;;;;;19.04;49.73;97598.88;4938302;28;20230;-90
2023/03/20 02:08:44;;;;;;;1.90;1.80;;;;;;;18.78;49.79;97551.09;4948209;28;20584;-90
2023/03/20 02:11:10;;;;;;;1.67;1.57;;;;;;;19.25;49.78;97632.84;4941262;28;20250;-90
2023/03/20 02:13:37;;;;;;;1.87;1.60;;;;;;;18.36;49.85;97478.97;4942594;28;20230;-90
2023/03/20 02:16:08;;;;;;;1.70;1.60;;;;;;;18.88;49.83;97566.81;4947846;28;20318;-90
2023/03/20 02:18:35;;;;;;;1.80;1.70;;;;;;;18.26;49.78;97492.09;4955803;28;20671;-90
2023/03/20 02:21:32;;;;;;;1.80;1.70;;;;;;;19.28;49.70;97633.00;4974444;28;20241;-90
2023/03/20 02:24:14;;;;;;;1.97;1.70;;;;;;;19.29;49.81;97634.72;4974251;28;20282;-90
2023/03/20 02:26:59;;;;;;;3.00;1.80;;;;;;;19.30;49.80;97637.34;4984414;28;20266;-90
2023/03/20 02:29:44;;;;;;;2.07;1.87;;;;;;;19.31;49.83;97638.22;4974278;28;20231;-90
2023/03/20 02:32:31;;;;;;;1.60;1.50;;;;;;;19.19;49.75;97620.72;4974864;28;20659;-89
2023/03/20 02:35:36;;;;;;;1.83;1.73;;;;;;;19.31;49.58;97649.28;4959502;28;20671;-89
2023/03/20 02:38:34;;;;;;;1.80;1.70;;;;;;;19.32;49.70;97638.28;4974193;28;20207;-89
2023/03/20 02:41:07;;;;;;;1.80;1.70;;;;;;;19.33;49.56;97647.66;4954815;29;20291;-90
2023/03/20 02:43:39;;;;;;;1.67;1.57;;;;;;;19.34;49.75;97645.97;4974589;28;20207;-90
2023/03/20 02:46:14;;;;;;;1.70;1.60;;;;;;;18.72;49.42;97543.22;4973913;28;20238;-90
2023/03/20 02:48:54;;;;;;;1.90;1.80;;;;;;;18.81;49.61;97559.75;4958199;28;20203;-90
2023/03/20 02:51:32;;;;;;;1.83;1.73;;;;;;;18.60;49.65;97528.34;4958911;28;20204;-89
2023/03/20 02:54:14;;;;;;;1.60;1.50;;;;;;;18.40;49.58;97496.09;4953259;28;20621;-90
2023/03/20 02:57:00;;;;;;;1.70;1.60;;;;;;;19.35;49.50;97671.53;4972951;28;20223;-89
2023/03/20 03:00:08;;;;;;;1.50;1.40;;;;;;;19.36;49.51;97657.97;4989706;28;20242;-90
2023/03/20 03:02:37;;;;;;;1.90;1.77;;;;;;;19.21;49.72;97639.47;4949366;28;20659;-89
2023/03/20 03:05:23;;;;;;;1.50;1.40;;;;;;;19.34;49.61;97658.72;4941803;28;20207;-90
2023/03/20 03:07:51;;;;;;;1.60;1.50;;;;;;;18.49;49.68;97514.28;4959686;28;20227;-89
2023/03/20 03:10:21;;;;;;;1.87;1.67;;;;;;;19.37;49.60;97661.41;4973571;28;20255;-90
2023/03/20 03:12:48;;;;;;;1.70;1.60;;;;;;;18.93;49.41;97590.81;4957877;28;20655;-89
2023/03/20 03:15:18;;;;;;;2.00;1.90;;;;;;;18.96;49.48;97596.03;4957031;28;20223;-89
2023/03/20 03:17:45;;;;;;;1.60;1.50;;;;;;;18.72;49.50;97561.94;4942193;28;20210;-89
2023/03/20 03:20:27;;;;;;;2.10;2.00;;;;;;;18.93;49.42;97592.47;4954066;28;20326;-89
2023/03/20 03:22:54;;;;;;;1.70;1.60;;;;;;;19.38;49.49;97666.56;4953723;28;20577;-90
2023/03/20 03:25:23;;;;;;;1.50;1.40;;;;;;;19.18;49.67;97631.72;4957298;28;20489;-90
2023/03/20 03:27:55;;;;;;;2.03;1.83;;;;;;;19.38;49.32;97669.09;4941702;28;20254;-90
2023/03/20 03:30:27;;;;;;;1.60;1.50;;;;;;;18.94;49.57;97586.56;4956412;28;20246;-90
2023/03/20 03:33:15;;;;;;;1.80;1.70;;;;;;;18.04;49.67;97459.84;4957497;28;20242;-90
2023/03/20 03:35:42;;;;;;;1.70;1.60;;;;;;;19.00;49.54;97605.50;4972846;28;20745;-89
2023/03/20 03:38:15;;;;;;;1.90;1.80;;;;;;;19.19;49.35;97635.16;4957167;28;20710;-89
2023/03/20 03:40:48;;;;;;;1.50;1.40;;;;;;;19.32;49.67;97661.22;4973475;28;20331;-90
2023/03/20 03:43:22;;;;;;;1.70;1.60;;;;;;;18.67;49.62;97547.25;4988835;28;20207;-88
2023/03/20 03:45:53;;;;;;;1.77;1.67;;;;;;;18.68;49.55;97554.09;4957103;28;20271;-90
2023/03/20 03:48:22;;;;;;;1.67;1.57;;;;;;;18.53;50.07;97539.06;4957580;28;20666;-90
2023/03/20 03:50:53;;;;;;;1.70;1.60;;;;;;;18.60;49.46;97545.28;4941126;28;20291;-89
2023/03/20 03:53:23;;;;;;;1.67;1.57;;;;;;;19.40;49.54;97682.78;4956312;28;20212;-90
2023/03/20 03:55:51;;;;;;;1.90;1.80;;;;;;;19.40;49.41;97675.13;4940221;28;20331;-90
2023/03/20 03:58:31;;;;;;;1.90;1.80;;;;;;;18.79;49.51;97580.84;4956974;28;20268;-88
2023/03/20 04:00:58;;;;;;;1.50;1.40;;;;;;;18.63;49.44;97545.41;4969725;28;20196;-90
2023/03/20 04:03:30;;;;;;;1.60;1.50;;;;;;;19.41;49.60;97689.63;4953515;28;20287;-89
2023/03/20 04:05:56;;;;;;;1.77;1.67;;;;;;;19.17;49.47;97644.41;4952496;28;20306;-89
2023/03/20 04:08:23;;;;;;;1.90;1.80;;;;;;;18.94;49.40;97599.28;4964770;28;20204;-90
2023/03/20 04:10:50;;;;;;;1.80;1.70;;;;;;;18.78;49.56;97574.03;4949526;28;20200;-90
2023/03/20 04:13:16;;;;;;;1.60;1.50;;;;;;;18.96;49.56;97606.19;4966500;28;20208;-89
2023/03/20 04:15:43;;;;;;;1.80;1.70;;;;;;;18.80;49.45;97602.97;4955510;28;20224;-90
2023/03/20 04:18:14;;;;;;;1.80;1.70;;;;;;;19.19;49.37;97664.03;4936982;28;20299;-90
2023/03/20 04:20:41;;;;;;;1.70;1.60;;;;;;;18.60;49.40;97556.34;4954862;28;20200;-90
2023/03/20 04:23:08;;;;;;;1.80;1.70;;;;;;;18.69;49.38;97574.53;4969606;28;20606;-89
2023/03/20 04:25:34;;;;;;;1.80;1.70;;;;;;;19.04;49.47;97631.97;4955250;28;20261;-89
2023/03/20 04:28:01;;;;;;;1.67;1.57;;;;;;;19.42;49.19;97713.44;4953397;28;20212;-89
2023/03/20 04:30:31;;;;;;;1.87;1.63;;;;;;;19.17;49.29;97664.78;4938845;28;20655;-90
2023/03/20 04:32:58;;;;;;;1.70;1.60;;;;;;;18.97;49.02;97623.22;4970575;28;20227;-87
2023/03/20 04:35:24;;;;;;;1.60;1.50;;;;;;;18.92;49.25;97613.66;4949507;28;20274;-89
2023/03/20 04:37:51;;;;;;;1.70;1.60;;;;;;;18.99;49.39;97629.25;4972035;28;20243;-90
2023/03/20 04:40:18;;;;;;;1.67;1.57;;;;;;;18.79;49.24;97593.56;4963280;28;20227;-88
2023/03/20 04:42:44;;;;;;;1.80;1.70;;;;;;;18.78;49.29;97581.66;4950279;28;20283;-90
2023/03/20 04:45:11;;;;;;;1.73;1.63;;;;;;;19.08;49.30;97639.81;4938009;28;20662;-90
2023/03/20 04:47:37;;;;;;;1.70;1.60;;;;;;;19.01;49.48;97614.88;4939196;28;20279;-89
2023/03/20 04:50:05;;;;;;;1.70;1.60;;;;;;;19.44;49.31;97694.81;4939751;28;20214;-89
2023/03/20 04:52:31;;;;;;;1.63;1.47;;;;;;;19.06;49.21;97632.88;4969802;28;20227;-90
2023/03/20 04:54:58;;;;;;;1.60;1.50;;;;;;;19.05;49.93;97628.63;4955709;28;20747;-89
2023/03/20 04:57:24;;;;;;;3.93;1.60;;;;;;;18.67;49.97;97567.63;4966705;28;20220;-89
2023/03/20 04:59:51;;;;;;;2.17;1.73;;;;;;;19.46;49.93;97705.09;4968672;28;20222;-90
2023/03/20 05:02:18;;;;;;;1.90;1.80;;;;;;;18.51;49.46;97530.50;4968980;28;20220;-89
2023/03/20 05:04:44;;;;;;;1.77;1.67;;;;;;;19.03;49.67;97645.50;4953227;28;20573;-90
2023/03/20 05:07:11;;;;;;;2.10;2.00;;;;;;;18.65;49.97;97554.81;4926189;28;20207;-89
2023/03/20 05:09:38;;;;;;;1.67;1.57;;;;;;;18.97;49.95;97617.25;4958090;28;20207;-89
2023/03/20 05:12:04;;;;;;;1.70;1.60;;;;;;;19.08;49.64;97636.38;4943820;28;20208;-89
2023/03/20 05:14:31;;;;;;;1.80;1.70;;;;;;;19.17;49.70;97662.22;4959082;28;20207;-89
2023/03/20 05:16:57;;;;;;;1.70;1.60;;;;;;;18.03;49.46;97478.41;4944406;28;20326;-88
2023/03/20 05:19:24;;;;;;;1.80;1.70;;;;;;;18.99;49.47;97620.72;4943997;28;20208;-89
2023/03/20 05:21:51;;;;;;;2.10;1.70;;;;;;;18.45;49.26;97535.34;4927622;28;20230;-87
2023/03/20 05:24:18;;;;;;;1.67;1.57;;;;;;;19.39;49.43;97695.47;4960885;28;20216;-89
2023/03/20 05:26:44;;;;;;;1.90;1.80;;;;;;;19.41;49.74;97698.94;4944846;28;20311;-90
2023/03/20 05:29:11;;;;;;;1.80;1.70;;;;;;;19.38;49.43;97721.72;4944372;28;20679;-89
2023/03/20 05:31:38;;;;;;;1.60;1.50;;;;;;;18.98;49.29;97637.69;4943851;28;20204;-89
2023/03/20 05:34:04;;;;;;;1.60;1.50;;;;;;;19.10;49.35;97667.91;4960029;28;20214;-90
2023/03/20 05:36:31;;;;;;;1.57;1.47;;;;;;;19.12;49.34;97662.03;4941949;28;20394;-89
2023/03/20 05:38:57;;;;;;;1.70;1.60;;;;;;;18.80;49.44;97625.88;4942550;28;20314;-90
2023/03/20 05:41:24;;;;;;;1.70;1.60;;;;;;;19.50;49.47;97725.66;4942308;28;20204;-89
2023/03/20 05:43:50;;;;;;;1.60;1.50;;;;;;;19.09;49.11;97663.59;4959569;28;21174;-90
2023/03/20 05:46:17;;;;;;;1.87;1.77;;;;;;;19.10;49.10;97661.09;4931876;28;20310;-91
2023/03/20 05:48:44;;;;;;;1.97;1.80;;;;;;;18.77;48.89;97624.06;4931220;28;20259;-89
2023/03/20 05:51:10;;;;;;;1.63;1.53;;;;;;;19.11;49.52;97677.25;4932192;28;20383;-90
2023/03/20 05:53:37;;;;;;;1.70;1.60;;;;;;;18.85;49.26;97634.56;4946711;28;20211;-90
2023/03/20 05:56:04;;;;;;;1.80;1.60;;;;;;;18.54;49.35;97579.00;4948056;28;20726;-89
2023/03/20 05:58:31;;;;;;;1.67;1.57;;;;;;;18.94;48.54;97648.56;4947615;28;20217;-89
2023/03/20 06:00:57;;;;;;;1.83;1.73;;;;;;;19.01;49.05;97660.72;4948120;28;20207;-90
2023/03/20 06:03:24;;;;;;;1.80;1.70;;;;;;;19.09;49.30;97677.19;4948009;28;20216;-88
2023/03/20 06:05:51;;;;;;;1.70;1.60;;;;;;;18.68;49.22;97617.75;4964178;28;20293;-90
2023/03/20 06:08:17;;;;;;;2.53;1.60;;;;;;;18.90;49.10;97668.75;4932765;28;20203;-88
2023/03/20 06:10:44;;;;;;;1.80;1.70;;;;;;;19.37;49.04;97730.19;4947697;28;20224;-90
2023/03/20 06:13:10;;;;;;;1.60;1.50;;;;;;;18.55;49.17;97584.94;4948037;28;20204;-89
2023/03/20 06:15:37;;;;;;;1.90;1.63;;;;;;;18.53;48.80;97578.91;4948054;28;20707;-89
2023/03/20 06:18:04;;;;;;;2.00;1.90;;;;;;;18.01;49.26;97500.38;4932300;28;21122;-89
2023/03/20 06:20:31;;;;;;;1.70;1.60;;;;;;;19.12;49.18;97689.19;4948575;28;20220;-88
2023/03/20 06:22:57;;;;;;;1.70;1.60;;;;;;;19.52;48.57;97761.41;4932171;28;20215;-90
2023/03/20 06:25:24;;;;;;;1.80;1.70;;;;;;;18.79;48.91;97637.72;4947088;28;20730;-89
2023/03/20 06:27:50;;;;;;;1.63;1.40;;;;;;;18.94;49.19;97657.84;4948347;28;20674;-88
2023/03/20 06:30:17;;;;;;;1.70;1.60;;;;;;;18.94;49.27;97657.84;4932751;28;20211;-90
2023/03/20 06:32:44;;;;;;;2.00;1.80;;;;;;;18.74;49.84;97639.22;4948078;28;20208;-90
2023/03/20 06:35:12;;;;;;;1.90;1.80;;;;;;;18.92;49.35;97674.78;4932360;28;20637;-91
2023/03/20 06:37:39;;;;;;;2.13;1.93;;;;;;;18.92;49.26;97677.31;4931646;28;20274;-89
2023/03/20 06:40:07;;;;;;;1.90;1.70;;;;;;;18.95;49.39;97674.91;4947396;28;20981;-89
2023/03/20 06:42:34;;;;;;;2.90;1.80;;;;;;;18.14;49.16;97539.91;4964610;28;20711;-90
2023/03/20 06:45:00;;;;;;;1.87;1.77;;;;;;;19.37;49.50;97759.13;4955512;28;20239;-90
2023/03/20 06:47:27;;;;;;;2.30;2.00;;;;;;;18.98;49.40;97680.13;4969188;28;20199;-88
2023/03/20 06:49:53;;;;;;;1.93;1.83;;;;;;;18.84;49.54;97669.38;4957892;28;20203;-89
2023/03/20 06:52:21;;;;;;;2.40;2.20;;;;;;;19.26;49.48;97747.56;4957627;28;20196;-88
2023/03/20 06:54:49;;;;;;;2.50;2.10;;;;;;;18.90;49.57;97691.66;4974453;28;20211;-90
2023/03/20 06:57:17;;;;;;;3.13;2.30;;;;;;;18.90;49.32;97691.66;4940772;28;20219;-90
2023/03/20 06:59:43;;;;;;;3.10;2.20;;;;;;;17.99;49.76;97532.50;4957698;28;20255;-90
2023/03/20 07:02:10;;;;;;;2.63;2.43;;;;;;;18.76;49.50;97668.16;4940632;28;20559;-89
2023/03/20 07:04:37;;;;;;;2.30;2.10;;;;;;;18.83;49.47;97693.06;4956566;28;20207;-90
2023/03/20 07:07:03;;;;;;;2.60;2.40;;;;;;;19.44;49.41;97798.44;4954735;28;20307;-89
2023/03/20 07:09:30;;;;;;;2.20;2.00;;;;;;;19.19;49.27;97765.94;4970129;28;20235;-89
2023/03/20 07:11:57;;;;;;;3.13;2.60;;;;;;;19.45;49.97;97802.75;4940574;28;20662;-88
2023/03/20 07:14:23;;;;;;;3.53;3.00;;;;;;;18.82;49.44;97688.78;4972668;28;20200;-89
2023/03/20 07:16:50;;;;;;;3.10;2.80;;;;;;;19.20;49.39;97770.25;4939460;28;20259;-89
2023/03/20 07:19:17;;;;;;;2.93;2.73;;;;;;;19.39;49.67;97805.91;4924803;28;20729;-89
2023/03/20 07:21:44;;;;;;;3.33;2.60;;;;;;;19.07;49.34;97755.22;4936557;28;20243;-89
2023/03/20 07:24:11;;;;;;;2.63;2.43;;;;;;;19.41;49.57;97806.84;4970816;28;20262;-89
2023/03/20 07:26:37;;;;;;;3.33;3.00;;;;;;;18.94;49.28;97737.69;4970843;28;20242;-89
2023/03/20 07:29:04;;;;;;;3.27;2.50;;;;;;;18.85;49.44;97718.59;4937305;28;20310;-89
2023/03/20 07:31:31;;;;;;;2.77;2.57;;;;;;;18.87;49.90;97709.34;4953199;28;20515;-89
2023/03/20 07:33:57;;;;;;;3.00;2.60;;;;;;;19.01;49.53;97743.94;4969389;28;20211;-89
2023/03/20 07:36:24;;;;;;;3.10;2.80;;;;;;;18.88;49.23;97718.72;4952378;28;20224;-89
2023/03/20 07:38:51;;;;;;;3.00;2.70;;;;;;;19.05;49.61;97754.31;4937347;28;20207;-89
2023/03/20 07:41:17;;;;;;;3.37;2.77;;;;;;;18.64;49.34;97685.47;4965807;28;20207;-89
2023/03/20 07:43:44;;;;;;;3.00;2.63;;;;;;;18.72;49.59;97701.94;4965756;28;20695;-90
2023/03/20 07:46:11;;;;;;;4.43;2.30;;;;;;;17.23;49.86;97443.50;4969613;28;20224;-89
2023/03/20 07:48:37;;;;;;;2.70;2.50;;;;;;;18.89;49.94;97730.66;4951692;28;20200;-89
2023/03/20 07:51:04;;;;;;;2.63;2.43;;;;;;;18.94;49.67;97736.81;4969357;28;20207;-89
2023/03/20 07:53:31;;;;;;;2.73;2.30;;;;;;;19.38;49.59;97827.09;4952057;28;20210;-89
2023/03/20 07:55:58;;;;;;;2.87;2.50;;;;;;;18.66;49.24;97695.69;4969527;28;20232;-90
2023/03/20 07:58:24;;;;;;;2.40;2.20;;;;;;;19.02;49.44;97759.28;4967532;28;20227;-89
2023/03/20 08:00:51;;;;;;;2.00;1.90;;;;;;;18.80;49.70;97730.28;4936148;28;20690;-90
2023/03/20 08:03:18;;;;;;;2.90;2.27;;;;;;;18.90;49.53;97729.84;4937058;28;20270;-90
2023/03/20 08:05:44;;;;;;;2.40;2.20;;;;;;;18.57;50.01;97665.66;4933154;28;20886;-89
2023/03/20 08:08:13;;;;;;;2.20;2.00;;;;;;;19.30;49.62;97791.94;4950209;28;20214;-89
2023/03/20 08:10:40;;;;;;;2.17;2.00;;;;;;;18.64;49.72;97671.84;4966227;28;20300;-90
2023/03/20 08:13:06;;;;;;;2.43;2.23;;;;;;;19.01;49.27;97742.22;4977438;28;20222;-89
2023/03/20 08:15:33;;;;;;;2.43;2.20;;;;;;;18.50;49.53;97653.44;4965579;28;20254;-89
2023/03/20 08:18:00;;;;;;;2.63;2.10;;;;;;;18.59;49.74;97666.56;4964062;28;20319;-89
2023/03/20 08:20:27;;;;;;;2.90;2.20;;;;;;;18.95;49.88;97736.03;4960513;28;20212;-88
2023/03/20 08:22:53;;;;;;;2.13;1.93;;;;;;;18.53;49.89;97662.91;4965321;28;20207;-89
2023/03/20 08:25:20;;;;;;;2.10;1.90;;;;;;;19.09;49.63;97762.94;4966127;28;20310;-89
2023/03/20 08:27:47;;;;;;;2.10;1.90;;;;;;;18.76;49.75;97719.06;4965533;28;20392;-89
2023/03/20 08:30:14;;;;;;;2.87;2.10;;;;;;;18.93;49.61;97737.63;4963769;28;20242;-89
2023/03/20 08:32:40;;;;;;;2.07;1.97;;;;;;;18.78;49.64;97709.84;4965087;28;20207;-89
2023/03/20 08:35:07;;;;;;;2.30;1.80;;;;;;;19.00;49.72;97749.81;4963590;28;20310;-89
2023/03/20 08:37:47;;;;;;;2.50;1.90;;;;;;;18.73;49.64;97696.03;4949340;28;20231;-90
2023/03/20 08:40:14;;;;;;;2.10;1.90;;;;;;;18.67;49.24;97687.25;4948379;28;20200;-89
2023/03/20 08:42:40;;;;;;;2.30;1.87;;;;;;;18.38;49.90;97634.25;4963666;28;20290;-89
2023/03/20 08:45:07;;;;;;;1.90;1.80;;;;;;;19.12;49.51;97763.06;4948598;28;20227;-89
2023/03/20 08:47:34;;;;;;;4.13;1.90;;;;;;;18.91;49.64;97734.13;4964313;28;20231;-90
2023/03/20 08:50:00;;;;;;;1.90;1.80;;;;;;;18.56;49.36;97670.66;4963931;28;20368;-89
2023/03/20 08:52:27;;;;;;;1.70;1.60;;;;;;;18.90;49.91;97729.84;4964683;28;20218;-88
2023/03/20 08:54:53;;;;;;;2.30;2.10;;;;;;;19.21;50.00;97805.09;4948315;28;20549;-90
2023/03/20 08:57:20;;;;;;;2.03;1.93;;;;;;;19.05;49.58;97758.53;4964939;28;20250;-90
2023/03/20 08:59:47;;;;;;;2.70;1.87;;;;;;;18.74;49.59;97714.75;4947396;28;20211;-89
2023/03/20 09:02:13;;;;;;;1.87;1.77;;;;;;;18.78;49.13;97712.38;4948693;28;20219;-89
2023/03/20 09:04:40;;;;;;;1.60;1.50;;;;;;;19.24;49.58;97794.16;4933648;28;20212;-90
2023/03/20 09:07:07;;;;;;;1.70;1.60;;;;;;;18.83;49.10;97720.22;4961183;28;20742;-90
2023/03/20 09:09:34;;;;;;;1.70;1.60;;;;;;;19.34;49.26;97804.88;4949072;28;20208;-89
2023/03/20 09:12:00;;;;;;;1.70;1.60;;;;;;;18.99;49.38;97753.16;4964860;28;20204;-89
2023/03/20 09:14:27;;;;;;;1.77;1.67;;;;;;;18.64;49.02;97702.38;4949696;28;20210;-90
2023/03/20 09:16:54;;;;;;;1.70;1.60;;;;;;;18.50;48.73;97675.50;4934233;28;20259;-90
2023/03/20 09:19:20;;;;;;;1.80;1.70;;;;;;;18.67;49.54;97698.31;4949911;28;20294;-89
2023/03/20 09:21:47;;;;;;;1.53;1.43;;;;;;;19.16;48.99;97798.91;4950064;28;20282;-89
2023/03/20 09:24:15;;;;;;;1.60;1.50;;;;;;;19.13;48.82;97780.94;4946923;28;20565;-89
2023/03/20 09:26:41;;;;;;;1.43;1.33;;;;;;;18.43;49.00;97654.00;4949887;28;20286;-89
2023/03/20 09:29:08;;;;;;;1.50;1.40;;;;;;;18.51;48.89;97673.03;4949563;28;20615;-90
2023/03/20 09:31:35;;;;;;;1.87;1.77;;;;;;;18.29;48.64;97631.28;4948319;28;20235;-89
2023/03/20 09:34:01;;;;;;;1.67;1.57;;;;;;;18.60;48.94;97687.81;4948501;28;20222;-90
2023/03/20 09:36:28;;;;;;;1.67;1.57;;;;;;;18.89;49.11;97740.84;4931019;28;20234;-89
2023/03/20 09:38:54;;;;;;;1.97;1.60;;;;;;;18.79;49.50;97738.69;4946942;28;20229;-89
2023/03/20 09:41:22;;;;;;;1.80;1.70;;;;;;;18.75;49.06;97714.81;4944396;28;20218;-89
2023/03/20 09:44:25;;;;;;;1.50;1.40;;;;;;;19.31;49.11;97816.59;4934972;28;20645;-90
2023/03/20 09:47:07;;;;;;;1.60;1.50;;;;;;;18.67;48.95;97707.63;4930672;28;20767;-90
2023/03/20 09:50:12;;;;;;;1.73;1.63;;;;;;;19.29;49.06;97815.63;4939190;28;20211;-90
2023/03/20 09:52:42;;;;;;;1.70;1.60;;;;;;;18.72;49.02;97716.34;4970640;28;20214;-89
2023/03/20 09:55:13;;;;;;;1.80;1.70;;;;;;;18.80;49.21;97731.13;4965912;28;20769;-89
2023/03/20 09:57:41;;;;;;;1.40;1.30;;;;;;;18.76;48.93;97719.06;4934286;28;20242;-89
2023/03/20 10:00:15;;;;;;;1.40;1.30;;;;;;;19.07;49.25;97808.72;4950809;28;20294;-89
2023/03/20 10:02:55;;;;;;;1.50;1.40;;;;;;;17.76;49.02;97558.56;4960663;28;20258;-89
2023/03/20 10:05:24;;;;;;;1.53;1.43;;;;;;;19.28;49.12;97812.25;4948063;28;20235;-89
2023/03/20 10:07:55;;;;;;;1.80;1.70;;;;;;;18.87;48.98;97730.59;4966489;28;20203;-90
2023/03/20 10:10:26;;;;;;;1.47;1.37;;;;;;;18.91;48.94;97765.56;4950120;28;20629;-89
2023/03/20 10:13:39;;;;;;;1.40;1.30;;;;;;;18.85;48.96;97734.75;4950743;28;20298;-89
2023/03/20 10:16:15;;;;;;;1.50;1.40;;;;;;;18.82;49.00;97726.97;4959428;28;20270;-90
2023/03/20 10:18:48;;;;;;;1.33;1.30;;;;;;;18.71;48.77;97722.25;4962895;28;20230;-89
2023/03/20 10:21:17;;;;;;;1.30;1.20;;;;;;;18.73;49.01;97720.59;4967635;28;20211;-89
2023/03/20 10:24:08;;;;;;;1.50;1.40;;;;;;;18.81;49.02;97730.34;4949352;28;20207;-89
2023/03/20 10:26:35;;;;;;;1.50;1.40;;;;;;;18.53;48.67;97696.00;4963090;28;20232;-87
2023/03/20 10:29:22;;;;;;;1.50;1.40;;;;;;;17.92;48.98;97580.47;4934798;28;20246;-89
2023/03/20 10:32:07;;;;;;;1.40;1.30;;;;;;;19.28;49.06;97806.28;4962239;28;20203;-90
2023/03/20 10:34:55;;;;;;;1.60;1.50;;;;;;;18.86;49.08;97731.38;4965630;28;20675;-89
2023/03/20 10:37:39;;;;;;;1.50;1.40;;;;;;;18.72;49.24;97718.88;4965858;28;20295;-89
2023/03/20 10:40:17;;;;;;;1.60;1.50;;;;;;;18.46;49.02;97659.22;4954851;28;20199;-89
2023/03/20 10:42:45;;;;;;;1.47;1.37;;;;;;;18.65;49.08;97689.72;4970185;28;20230;-89
2023/03/20 10:45:24;;;;;;;1.70;1.60;;;;;;;19.26;48.97;97788.34;4953479;28;20791;-89
2023/03/20 10:47:51;;;;;;;1.40;1.30;;;;;;;17.22;48.94;97440.88;4964338;28;20966;-89
2023/03/20 10:50:29;;;;;;;1.50;1.40;;;;;;;19.25;49.18;97807.00;4966559;28;20687;-89
2023/03/20 10:52:56;;;;;;;1.40;1.30;;;;;;;18.79;48.85;97708.13;4940856;28;20210;-89
2023/03/20 10:55:28;;;;;;;1.50;1.40;;;;;;;18.42;49.04;97641.22;4937224;28;20259;-91
2023/03/20 10:58:02;;;;;;;1.50;1.40;;;;;;;18.78;49.03;97698.78;4950819;28;20246;-89
2023/03/20 11:00:29;;;;;;;1.20;1.20;;;;;;;18.72;49.11;97693.41;4939264;28;20616;-90
2023/03/20 11:02:55;;;;;;;1.40;1.30;;;;;;;19.25;49.35;97807.00;4938000;28;21087;-90
2023/03/20 11:05:29;;;;;;;1.17;1.17;;;;;;;18.66;49.03;97680.44;4969477;28;20235;-89
2023/03/20 11:08:14;;;;;;;1.30;1.30;;;;;;;19.16;49.05;97760.69;4954370;28;20191;-89
2023/03/20 11:10:41;;;;;;;1.57;1.47;;;;;;;18.70;48.86;97677.19;4954638;28;20231;-89
2023/03/20 11:13:32;;;;;;;1.63;1.50;;;;;;;18.60;49.03;97658.13;4954698;28;20207;-89
2023/03/20 11:16:14;;;;;;;1.50;1.40;;;;;;;16.70;48.99;97320.06;4969756;28;20232;-89
2023/03/20 11:18:41;;;;;;;1.60;1.50;;;;;;;18.27;48.95;97598.13;4964620;28;20215;-90
2023/03/20 11:21:13;;;;;;;1.50;1.40;;;;;;;18.97;49.12;97716.56;4938593;28;20203;-89
2023/03/20 11:23:39;;;;;;;1.27;1.23;;;;;;;19.20;49.23;97761.72;4937445;28;20262;-89
2023/03/20 11:26:06;;;;;;;1.10;1.10;;;;;;;18.89;49.33;97743.41;4969536;28;20227;-90
2023/03/20 11:28:36;;;;;;;2.83;1.40;;;;;;;19.22;49.31;97781.34;4968792;28;21596;-91
2023/03/20 11:31:14;;;;;;;1.40;1.30;;;;;;;19.23;49.36;97770.38;4954757;28;20204;-91
2023/03/20 11:34:13;;;;;;;1.40;1.30;;;;;;;18.99;49.25;97733.66;4955359;28;20659;-90
2023/03/20 11:36:45;;;;;;;1.47;1.37;;;;;;;18.40;49.18;97625.88;4968036;28;20227;-89
2023/03/20 11:39:26;;;;;;;1.40;1.30;;;;;;;17.32;49.25;97436.28;4937001;29;20339;-91
2023/03/20 11:41:54;;;;;;;1.40;1.30;;;;;;;18.23;49.14;97594.59;4939459;28;20298;-91
2023/03/20 11:44:31;;;;;;;1.50;1.40;;;;;;;19.13;49.04;97740.19;4949813;28;20258;-91
2023/03/20 11:47:03;;;;;;;1.23;1.17;;;;;;;18.78;49.13;97689.47;4970544;28;20238;-90
2023/03/20 11:49:30;;;;;;;1.60;1.50;;;;;;;19.05;49.15;97738.16;4952270;28;20199;-91